Time;durP1;ratioP1;P1;durP2;ratioP2;P2;SDS_P1;SDS_P2;PMS_P1;PMS_P2;Temp;Humidity;BMP_temperature;BMP_pressure;BME280_temperature;BME280_humidity;BME280_pressure;Samples;Min_cycle;Max_cycle;Signal;HPM_P1;HPM_P2
2024/02/18 00:01:23;;;;;;;10.13;2.28;;;;;;;;;;5082121;28;20106;-73
2024/02/18 00:04:08;;;;;;;7.45;2.38;;;;;;;;;;5073535;28;20054;-73
2024/02/18 00:06:54;;;;;;;8.73;2.70;;;;;;;;;;5072102;28;20078;-73
2024/02/18 00:09:40;;;;;;;15.82;2.90;;;;;;;;;;5060462;28;20444;-73
2024/02/18 00:12:26;;;;;;;6.63;2.60;;;;;;;;;;5056117;28;20024;-73
2024/02/18 00:15:12;;;;;;;7.50;2.50;;;;;;;;;;5073679;28;20489;-73
2024/02/18 00:17:58;;;;;;;18.90;2.63;;;;;;;;;;5058029;28;20094;-73
2024/02/18 00:20:43;;;;;;;9.10;2.30;;;;;;;;;;5059205;28;20036;-72
2024/02/18 00:23:29;;;;;;;4.80;2.17;;;;;;;;;;5073295;28;20085;-73
2024/02/18 00:26:15;;;;;;;8.68;2.95;;;;;;;;;;5072592;28;20017;-73
2024/02/18 00:29:00;;;;;;;8.43;2.80;;;;;;;;;;5059011;28;20165;-73
2024/02/18 00:31:48;;;;;;;11.15;3.17;;;;;;;;;;5062085;28;20380;-73
2024/02/18 00:34:34;;;;;;;8.80;3.05;;;;;;;;;;5058591;28;20024;-73
2024/02/18 00:37:19;;;;;;;10.75;2.38;;;;;;;;;;5059653;28;20448;-73
2024/02/18 00:40:06;;;;;;;8.43;2.65;;;;;;;;;;5058177;28;20025;-73
2024/02/18 00:42:54;;;;;;;8.82;2.55;;;;;;;;;;5059152;28;20074;-73
2024/02/18 00:45:40;;;;;;;15.15;3.17;;;;;;;;;;5051912;28;20024;-73
2024/02/18 00:48:26;;;;;;;12.73;2.80;;;;;;;;;;5058346;28;20021;-73
2024/02/18 00:51:11;;;;;;;12.10;3.45;;;;;;;;;;5064926;28;20029;-73
2024/02/18 00:53:57;;;;;;;13.13;2.92;;;;;;;;;;5057772;28;20046;-73
2024/02/18 00:56:43;;;;;;;11.88;2.95;;;;;;;;;;5072045;28;20028;-73
2024/02/18 00:59:28;;;;;;;6.32;2.42;;;;;;;;;;5072037;28;20107;-74
2024/02/18 01:02:17;;;;;;;11.98;3.25;;;;;;;;;;5074524;28;20031;-74
2024/02/18 01:05:03;;;;;;;12.30;3.53;;;;;;;;;;5052662;28;20049;-73
2024/02/18 01:07:51;;;;;;;12.57;3.47;;;;;;;;;;5056119;28;20104;-73
2024/02/18 01:10:36;;;;;;;21.15;4.03;;;;;;;;;;5052034;28;20202;-73
2024/02/18 01:13:22;;;;;;;6.57;2.72;;;;;;;;;;5061329;28;20099;-73
2024/02/18 01:16:08;;;;;;;10.05;3.10;;;;;;;;;;5038324;28;20115;-73
2024/02/18 01:18:53;;;;;;;7.20;3.10;;;;;;;;;;5055436;28;20529;-73
2024/02/18 01:21:39;;;;;;;9.50;2.75;;;;;;;;;;5052994;28;20401;-73
2024/02/18 01:24:25;;;;;;;12.05;3.20;;;;;;;;;;5071695;28;20103;-73
2024/02/18 01:27:10;;;;;;;10.38;3.58;;;;;;;;;;5071628;28;20028;-73
2024/02/18 01:29:56;;;;;;;14.48;3.53;;;;;;;;;;5071865;28;20112;-73
2024/02/18 01:32:41;;;;;;;9.93;3.33;;;;;;;;;;5057080;28;20031;-73
2024/02/18 01:35:28;;;;;;;12.20;2.80;;;;;;;;;;5072173;28;20110;-72
2024/02/18 01:38:14;;;;;;;9.80;3.22;;;;;;;;;;5058587;28;20101;-73
2024/02/18 01:41:00;;;;;;;8.77;2.80;;;;;;;;;;5072137;28;20017;-73
2024/02/18 01:43:48;;;;;;;9.57;2.80;;;;;;;;;;5072400;28;20020;-72
2024/02/18 01:46:34;;;;;;;13.57;3.22;;;;;;;;;;5070151;28;20063;-73
2024/02/18 01:49:20;;;;;;;15.23;3.75;;;;;;;;;;5053153;28;20025;-73
2024/02/18 01:52:06;;;;;;;10.90;3.35;;;;;;;;;;5038106;28;20163;-73
2024/02/18 01:54:52;;;;;;;7.53;3.83;;;;;;;;;;5055981;28;20375;-73
2024/02/18 01:57:38;;;;;;;16.08;3.50;;;;;;;;;;5056074;28;20514;-73
2024/02/18 02:00:24;;;;;;;8.18;3.28;;;;;;;;;;5058920;28;20028;-73
2024/02/18 02:03:10;;;;;;;9.85;2.47;;;;;;;;;;5061803;28;20102;-73
2024/02/18 02:05:57;;;;;;;10.18;2.35;;;;;;;;;;5060016;28;20027;-73
2024/02/18 02:08:44;;;;;;;7.88;2.92;;;;;;;;;;5061105;28;20029;-73
2024/02/18 02:11:30;;;;;;;13.90;4.03;;;;;;;;;;5055016;28;20558;-72
2024/02/18 02:14:16;;;;;;;9.30;3.03;;;;;;;;;;5072587;28;20028;-73
2024/02/18 02:17:01;;;;;;;11.98;2.95;;;;;;;;;;5075298;28;20048;-72
2024/02/18 02:19:47;;;;;;;12.52;3.30;;;;;;;;;;5075135;28;20031;-73
2024/02/18 02:22:33;;;;;;;11.88;3.75;;;;;;;;;;5075416;28;20036;-73
2024/02/18 02:25:28;;;;;;;10.70;2.90;;;;;;;;;;5088280;28;20038;-73
2024/02/18 02:28:25;;;;;;;12.88;4.03;;;;;;;;;;5079198;28;20028;-73
2024/02/18 02:31:15;;;;;;;11.13;2.97;;;;;;;;;;5073588;28;20089;-73
2024/02/18 02:34:00;;;;;;;11.75;3.40;;;;;;;;;;5093905;28;20401;-73
2024/02/18 02:36:46;;;;;;;16.30;2.63;;;;;;;;;;5076996;28;20025;-73
2024/02/18 02:39:32;;;;;;;15.88;3.15;;;;;;;;;;5060046;28;20486;-73
2024/02/18 02:42:20;;;;;;;9.95;2.67;;;;;;;;;;5075072;28;20452;-73
2024/02/18 02:45:06;;;;;;;16.00;3.00;;;;;;;;;;5062047;28;20058;-73
2024/02/18 02:47:52;;;;;;;7.22;3.22;;;;;;;;;;5075403;28;20020;-73
2024/02/18 02:50:38;;;;;;;13.85;3.67;;;;;;;;;;5075334;28;20494;-73
2024/02/18 02:53:24;;;;;;;9.90;2.53;;;;;;;;;;5075325;28;20645;-73
2024/02/18 02:56:09;;;;;;;12.43;3.50;;;;;;;;;;5075162;28;20061;-73
2024/02/18 02:58:55;;;;;;;13.35;3.63;;;;;;;;;;5075260;28;20497;-73
2024/02/18 03:01:40;;;;;;;12.77;2.55;;;;;;;;;;5075202;28;20474;-72
2024/02/18 03:04:26;;;;;;;11.07;2.90;;;;;;;;;;5075306;28;20024;-73
2024/02/18 03:07:12;;;;;;;15.30;2.70;;;;;;;;;;5073597;28;20023;-73
2024/02/18 03:09:58;;;;;;;9.32;2.67;;;;;;;;;;5075252;28;20025;-73
2024/02/18 03:12:49;;;;;;;11.27;3.42;;;;;;;;;;5074055;28;20058;-73
2024/02/18 03:15:35;;;;;;;13.40;3.55;;;;;;;;;;5060244;28;20107;-73
2024/02/18 03:18:21;;;;;;;12.98;3.08;;;;;;;;;;5061302;28;20024;-72
2024/02/18 03:21:07;;;;;;;9.45;3.28;;;;;;;;;;5074814;28;20020;-73
2024/02/18 03:23:55;;;;;;;8.75;2.45;;;;;;;;;;5074983;28;20024;-73
2024/02/18 03:26:41;;;;;;;14.65;3.72;;;;;;;;;;5073818;28;20016;-73
2024/02/18 03:29:27;;;;;;;6.38;2.90;;;;;;;;;;5074758;28;20397;-72
2024/02/18 03:32:13;;;;;;;16.42;3.40;;;;;;;;;;5061268;28;20017;-73
2024/02/18 03:34:59;;;;;;;12.35;2.92;;;;;;;;;;5060081;28;20375;-72
2024/02/18 03:37:45;;;;;;;8.50;2.88;;;;;;;;;;5058297;28;20024;-73
2024/02/18 03:40:31;;;;;;;8.38;3.00;;;;;;;;;;5074589;28;20024;-73
2024/02/18 03:43:17;;;;;;;14.70;3.55;;;;;;;;;;5073691;28;20032;-73
2024/02/18 03:46:03;;;;;;;16.42;3.20;;;;;;;;;;5074230;28;20055;-73
2024/02/18 03:48:48;;;;;;;15.75;3.95;;;;;;;;;;5073781;28;20024;-73
2024/02/18 03:51:34;;;;;;;7.90;3.72;;;;;;;;;;5074883;28;20490;-73
2024/02/18 03:54:19;;;;;;;10.90;3.03;;;;;;;;;;5074073;28;20051;-72
2024/02/18 03:57:05;;;;;;;12.45;3.92;;;;;;;;;;5073263;28;20100;-73
2024/02/18 03:59:51;;;;;;;20.38;5.32;;;;;;;;;;5074613;28;20063;-73
2024/02/18 04:02:38;;;;;;;14.20;4.22;;;;;;;;;;5059072;28;20566;-73
2024/02/18 04:05:26;;;;;;;10.23;6.28;;;;;;;;;;5058050;28;20028;-73
2024/02/18 04:08:12;;;;;;;15.82;4.65;;;;;;;;;;5058922;28;20086;-73
2024/02/18 04:10:57;;;;;;;16.00;4.45;;;;;;;;;;5071813;28;20021;-72
2024/02/18 04:13:43;;;;;;;11.40;3.97;;;;;;;;;;5075311;28;20453;-72
2024/02/18 04:16:29;;;;;;;9.38;4.38;;;;;;;;;;5075477;28;20032;-73
2024/02/18 04:19:15;;;;;;;19.33;5.13;;;;;;;;;;5058157;28;20432;-73
2024/02/18 04:22:00;;;;;;;12.52;4.03;;;;;;;;;;5072833;28;20017;-73
2024/02/18 04:24:46;;;;;;;16.48;4.57;;;;;;;;;;5073398;28;20104;-73
2024/02/18 04:27:32;;;;;;;15.80;5.60;;;;;;;;;;5071985;28;20021;-72
2024/02/18 04:30:17;;;;;;;15.48;4.32;;;;;;;;;;5073167;28;20021;-74
2024/02/18 04:33:03;;;;;;;15.02;4.55;;;;;;;;;;5044537;28;20489;-73
2024/02/18 04:35:49;;;;;;;10.98;5.25;;;;;;;;;;5072283;28;20021;-73
2024/02/18 04:38:34;;;;;;;19.67;4.97;;;;;;;;;;5072886;28;20066;-73
2024/02/18 04:41:21;;;;;;;10.57;4.85;;;;;;;;;;5072407;28;20074;-73
2024/02/18 04:44:06;;;;;;;15.95;4.68;;;;;;;;;;5072830;28;20166;-72
2024/02/18 04:46:52;;;;;;;14.85;5.43;;;;;;;;;;5072678;28;20016;-73
2024/02/18 04:49:38;;;;;;;14.82;5.03;;;;;;;;;;5072832;28;20452;-72
2024/02/18 04:52:23;;;;;;;20.08;5.38;;;;;;;;;;5073198;28;20017;-73
2024/02/18 04:55:09;;;;;;;13.40;5.50;;;;;;;;;;5071737;28;20023;-72
2024/02/18 04:57:54;;;;;;;12.95;5.95;;;;;;;;;;5072853;28;20024;-73
2024/02/18 05:00:40;;;;;;;14.57;4.95;;;;;;;;;;5074021;28;20024;-73
2024/02/18 05:03:26;;;;;;;16.45;5.63;;;;;;;;;;5072142;28;20054;-73
2024/02/18 05:06:11;;;;;;;19.30;5.93;;;;;;;;;;5074693;28;20547;-73
2024/02/18 05:08:57;;;;;;;14.25;5.93;;;;;;;;;;5072126;28;20025;-73
2024/02/18 05:11:43;;;;;;;10.85;5.55;;;;;;;;;;5072464;28;20016;-73
2024/02/18 05:14:30;;;;;;;21.05;7.82;;;;;;;;;;5072869;28;20028;-73
2024/02/18 05:17:16;;;;;;;15.27;6.20;;;;;;;;;;5070857;28;20025;-73
2024/02/18 05:20:03;;;;;;;16.80;7.53;;;;;;;;;;5072827;28;20024;-73
2024/02/18 05:22:48;;;;;;;19.80;7.00;;;;;;;;;;5072126;28;20020;-73
2024/02/18 05:25:36;;;;;;;16.73;7.97;;;;;;;;;;5072166;28;20029;-72
2024/02/18 05:28:21;;;;;;;22.80;7.57;;;;;;;;;;5071955;28;20024;-73
2024/02/18 05:31:22;;;;;;;18.80;7.47;;;;;;;;;;5071217;28;20031;-73
2024/02/18 05:34:07;;;;;;;25.75;8.65;;;;;;;;;;5073925;28;20033;-73
2024/02/18 05:36:53;;;;;;;23.45;9.52;;;;;;;;;;5076022;28;20020;-73
2024/02/18 05:39:39;;;;;;;26.30;8.95;;;;;;;;;;5061874;28;20028;-73
2024/02/18 05:42:24;;;;;;;27.58;8.70;;;;;;;;;;5076450;28;20079;-73
2024/02/18 05:45:10;;;;;;;27.27;7.97;;;;;;;;;;5061736;28;20496;-73
2024/02/18 05:47:56;;;;;;;39.60;10.27;;;;;;;;;;5061459;28;20067;-73
2024/02/18 05:50:42;;;;;;;32.15;11.20;;;;;;;;;;5061742;28;20032;-73
2024/02/18 05:53:28;;;;;;;32.38;10.52;;;;;;;;;;5075611;28;20033;-73
2024/02/18 05:56:13;;;;;;;25.80;11.68;;;;;;;;;;5076141;28;20025;-73
2024/02/18 05:59:03;;;;;;;32.72;9.85;;;;;;;;;;5076154;28;20490;-73
2024/02/18 06:01:49;;;;;;;33.70;10.90;;;;;;;;;;5075792;28;20033;-73
2024/02/18 06:04:34;;;;;;;29.85;11.00;;;;;;;;;;5076039;28;20532;-73
2024/02/18 06:07:20;;;;;;;31.27;12.13;;;;;;;;;;5075080;28;20023;-73
2024/02/18 06:10:09;;;;;;;34.50;11.23;;;;;;;;;;5061256;28;20052;-73
2024/02/18 06:12:54;;;;;;;48.55;12.98;;;;;;;;;;5061183;28;20020;-73
2024/02/18 06:15:40;;;;;;;33.92;12.18;;;;;;;;;;5075549;28;20056;-73
2024/02/18 06:18:26;;;;;;;35.42;12.60;;;;;;;;;;5075114;28;20496;-73
2024/02/18 06:21:21;;;;;;;37.63;12.35;;;;;;;;;;5075577;28;20082;-73
2024/02/18 06:24:06;;;;;;;32.72;13.75;;;;;;;;;;5061094;28;20543;-73
2024/02/18 06:26:52;;;;;;;35.58;12.05;;;;;;;;;;5074559;28;20020;-72
2024/02/18 06:29:37;;;;;;;38.78;12.98;;;;;;;;;;5073741;28;20108;-73
2024/02/18 06:32:23;;;;;;;36.08;13.23;;;;;;;;;;5075278;28;20106;-73
2024/02/18 06:35:09;;;;;;;32.40;13.48;;;;;;;;;;5075601;28;20107;-73
2024/02/18 06:37:55;;;;;;;35.97;12.57;;;;;;;;;;5078454;28;20040;-73
2024/02/18 06:40:40;;;;;;;36.20;12.52;;;;;;;;;;5045174;28;20021;-73
2024/02/18 06:43:27;;;;;;;40.42;14.27;;;;;;;;;;5065270;28;20099;-73
2024/02/18 06:46:13;;;;;;;34.15;15.05;;;;;;;;;;5074104;28;20112;-73
2024/02/18 06:48:59;;;;;;;37.20;13.88;;;;;;;;;;5074093;28;20025;-73
2024/02/18 06:51:44;;;;;;;35.30;13.30;;;;;;;;;;5077097;28;20497;-73
2024/02/18 06:54:30;;;;;;;42.58;13.95;;;;;;;;;;5074844;28;20089;-73
2024/02/18 06:57:16;;;;;;;41.92;14.35;;;;;;;;;;5051157;28;20023;-73
2024/02/18 07:00:02;;;;;;;43.67;15.15;;;;;;;;;;5074181;28;20051;-73
2024/02/18 07:02:53;;;;;;;46.60;15.82;;;;;;;;;;5047242;28;20123;-73
2024/02/18 07:05:38;;;;;;;42.40;15.10;;;;;;;;;;5090176;28;20098;-73
2024/02/18 07:08:24;;;;;;;46.00;17.05;;;;;;;;;;5078477;28;20028;-73
2024/02/18 07:11:10;;;;;;;39.90;15.63;;;;;;;;;;5078087;28;20032;-73
2024/02/18 07:13:56;;;;;;;45.42;18.08;;;;;;;;;;5078731;28;20537;-73
2024/02/18 07:16:41;;;;;;;51.88;18.30;;;;;;;;;;5058630;28;20020;-73
2024/02/18 07:19:27;;;;;;;47.40;16.00;;;;;;;;;;5078501;28;20020;-73
2024/02/18 07:22:14;;;;;;;47.42;16.80;;;;;;;;;;5071878;28;20027;-73
2024/02/18 07:24:59;;;;;;;43.42;15.35;;;;;;;;;;5093581;28;20028;-73
2024/02/18 07:27:45;;;;;;;40.85;15.73;;;;;;;;;;5070660;28;20020;-72
2024/02/18 07:30:31;;;;;;;44.55;16.83;;;;;;;;;;5054536;28;20115;-73
2024/02/18 07:33:19;;;;;;;51.92;18.63;;;;;;;;;;5062649;28;20020;-73
2024/02/18 07:36:05;;;;;;;53.15;17.83;;;;;;;;;;5059140;28;20024;-72
2024/02/18 07:38:50;;;;;;;46.08;18.13;;;;;;;;;;5087644;28;20024;-73
2024/02/18 07:41:36;;;;;;;55.88;19.17;;;;;;;;;;5081626;28;20378;-73
2024/02/18 07:44:21;;;;;;;62.08;19.10;;;;;;;;;;5085617;28;20554;-73
2024/02/18 07:47:07;;;;;;;53.83;19.02;;;;;;;;;;5093273;28;20024;-73
2024/02/18 07:49:53;;;;;;;59.20;18.77;;;;;;;;;;5076490;28;20028;-72
2024/02/18 07:52:38;;;;;;;51.83;18.48;;;;;;;;;;5078083;28;20054;-73
2024/02/18 07:55:25;;;;;;;51.03;18.23;;;;;;;;;;5077411;28;20111;-73
2024/02/18 07:58:10;;;;;;;49.88;16.92;;;;;;;;;;5080650;28;20111;-73
2024/02/18 08:00:56;;;;;;;52.78;18.60;;;;;;;;;;5092243;28;20498;-73
2024/02/18 08:03:45;;;;;;;47.65;17.83;;;;;;;;;;5085520;28;20026;-73
2024/02/18 08:06:31;;;;;;;44.03;17.77;;;;;;;;;;5071281;28;20027;-73
2024/02/18 08:09:18;;;;;;;55.85;19.00;;;;;;;;;;5071427;28;20040;-73
2024/02/18 08:12:04;;;;;;;50.53;19.10;;;;;;;;;;5072904;28;20417;-73
2024/02/18 08:14:50;;;;;;;49.15;16.73;;;;;;;;;;5073885;28;20474;-73
2024/02/18 08:17:36;;;;;;;52.45;18.45;;;;;;;;;;5071839;28;20033;-73
2024/02/18 08:20:21;;;;;;;50.15;19.90;;;;;;;;;;5053721;28;20028;-73
2024/02/18 08:23:07;;;;;;;44.72;17.23;;;;;;;;;;5066465;28;20027;-73
2024/02/18 08:25:53;;;;;;;58.47;20.80;;;;;;;;;;5049215;28;20027;-73
2024/02/18 08:28:39;;;;;;;57.50;19.58;;;;;;;;;;5064774;28;20028;-72
2024/02/18 08:31:24;;;;;;;47.33;18.90;;;;;;;;;;5078483;28;20024;-74
2024/02/18 08:34:12;;;;;;;51.03;18.42;;;;;;;;;;5063534;28;20397;-73
2024/02/18 08:36:58;;;;;;;46.33;18.05;;;;;;;;;;5082602;28;20036;-73
2024/02/18 08:39:43;;;;;;;49.03;18.55;;;;;;;;;;5078154;28;20020;-73
2024/02/18 08:42:29;;;;;;;59.83;19.23;;;;;;;;;;5084176;28;20055;-73
2024/02/18 08:45:15;;;;;;;58.53;20.63;;;;;;;;;;5082080;28;20031;-73
2024/02/18 08:48:00;;;;;;;59.78;18.73;;;;;;;;;;5072471;28;20029;-73
2024/02/18 08:50:46;;;;;;;54.58;20.25;;;;;;;;;;5070721;28;20086;-72
2024/02/18 08:53:32;;;;;;;58.47;20.55;;;;;;;;;;5089379;28;20451;-73
2024/02/18 08:56:17;;;;;;;53.10;20.55;;;;;;;;;;5090364;28;20031;-71
2024/02/18 08:59:03;;;;;;;51.08;20.60;;;;;;;;;;5075248;28;20508;-73
2024/02/18 09:01:56;;;;;;;48.22;19.83;;;;;;;;;;5071723;28;20032;-73
2024/02/18 09:04:42;;;;;;;53.33;19.17;;;;;;;;;;5047146;28;20032;-73
2024/02/18 09:07:29;;;;;;;48.33;18.08;;;;;;;;;;5036669;28;20044;-73
2024/02/18 09:10:15;;;;;;;51.15;17.35;;;;;;;;;;5044167;28;20494;-74
2024/02/18 09:13:01;;;;;;;49.45;19.65;;;;;;;;;;5051969;28;20025;-73
2024/02/18 09:15:48;;;;;;;49.25;18.73;;;;;;;;;;5043824;28;20044;-73
2024/02/18 09:18:33;;;;;;;48.20;18.65;;;;;;;;;;5053003;28;20112;-73
2024/02/18 09:21:19;;;;;;;50.40;19.33;;;;;;;;;;5038296;28;20025;-74
2024/02/18 09:24:05;;;;;;;45.33;17.98;;;;;;;;;;5040074;28;20410;-73
2024/02/18 09:26:50;;;;;;;38.80;18.80;;;;;;;;;;5037504;28;20029;-73
2024/02/18 09:29:36;;;;;;;44.20;18.42;;;;;;;;;;5043039;28;20036;-73
2024/02/18 09:32:22;;;;;;;41.55;17.30;;;;;;;;;;5071397;28;20063;-73
2024/02/18 09:35:08;;;;;;;45.38;17.58;;;;;;;;;;5076005;28;20069;-73
2024/02/18 09:37:53;;;;;;;46.17;18.25;;;;;;;;;;5081418;28;20028;-73
2024/02/18 09:40:39;;;;;;;39.10;16.80;;;;;;;;;;5074676;28;20024;-73
2024/02/18 09:43:26;;;;;;;49.67;17.77;;;;;;;;;;5071340;28;20025;-73
2024/02/18 09:46:13;;;;;;;39.88;15.63;;;;;;;;;;5072461;28;20036;-74
2024/02/18 09:49:00;;;;;;;42.10;16.10;;;;;;;;;;5071603;28;20044;-73
2024/02/18 09:51:48;;;;;;;41.13;15.48;;;;;;;;;;5058005;28;20516;-74
2024/02/18 09:54:35;;;;;;;40.92;15.88;;;;;;;;;;5057424;28;20111;-73
2024/02/18 09:57:21;;;;;;;39.03;16.92;;;;;;;;;;5055703;28;20375;-74
2024/02/18 10:00:10;;;;;;;41.13;17.77;;;;;;;;;;5076711;28;20051;-74
2024/02/18 10:02:56;;;;;;;38.85;15.95;;;;;;;;;;5084924;28;20062;-74
2024/02/18 10:05:42;;;;;;;40.05;15.38;;;;;;;;;;5076829;28;20074;-73
2024/02/18 10:08:27;;;;;;;37.88;16.88;;;;;;;;;;5076178;28;20020;-73
2024/02/18 10:11:13;;;;;;;38.42;14.32;;;;;;;;;;5071910;28;20024;-73
2024/02/18 10:13:59;;;;;;;36.08;14.48;;;;;;;;;;5056927;28;20025;-72
2024/02/18 10:16:45;;;;;;;33.50;13.45;;;;;;;;;;5056140;28;20558;-74
2024/02/18 10:19:31;;;;;;;30.98;13.85;;;;;;;;;;5070482;28;20028;-74
2024/02/18 10:22:16;;;;;;;31.55;12.77;;;;;;;;;;5079323;28;20595;-72
2024/02/18 10:25:03;;;;;;;33.67;13.85;;;;;;;;;;5084469;28;20028;-74
2024/02/18 10:27:49;;;;;;;28.20;11.98;;;;;;;;;;5094726;28;20047;-74
2024/02/18 10:30:35;;;;;;;25.98;10.95;;;;;;;;;;5079189;22;20451;-73
2024/02/18 10:33:21;;;;;;;32.05;13.40;;;;;;;;;;5093810;28;20108;-73
2024/02/18 10:36:08;;;;;;;29.55;11.45;;;;;;;;;;5087420;28;20024;-73
2024/02/18 10:38:57;;;;;;;31.35;10.88;;;;;;;;;;5074003;28;20059;-73
2024/02/18 10:41:52;;;;;;;28.60;12.13;;;;;;;;;;5073320;28;20111;-73
2024/02/18 10:44:43;;;;;;;27.95;11.88;;;;;;;;;;5045716;28;20111;-73
2024/02/18 10:47:31;;;;;;;23.20;10.60;;;;;;;;;;5052817;28;20013;-73
2024/02/18 10:50:17;;;;;;;24.95;10.10;;;;;;;;;;5040013;28;20374;-73
2024/02/18 10:53:21;;;;;;;16.80;8.27;;;;;;;;;;5029943;28;20418;-73
2024/02/18 10:56:21;;;;;;;25.00;10.70;;;;;;;;;;5020494;28;20026;-73
2024/02/18 10:59:19;;;;;;;20.02;9.15;;;;;;;;;;5025390;28;20037;-74
2024/02/18 11:02:12;;;;;;;20.73;8.93;;;;;;;;;;5018449;28;20421;-73
2024/02/18 11:04:58;;;;;;;21.40;9.40;;;;;;;;;;5047100;28;20033;-72
2024/02/18 11:07:44;;;;;;;20.05;8.95;;;;;;;;;;5039962;28;20032;-73
2024/02/18 11:10:30;;;;;;;20.83;9.15;;;;;;;;;;5037353;28;20032;-72
2024/02/18 11:13:17;;;;;;;19.77;8.55;;;;;;;;;;5034488;28;20021;-74
2024/02/18 11:16:04;;;;;;;17.55;8.18;;;;;;;;;;5024968;28;20024;-73
2024/02/18 11:18:49;;;;;;;17.52;8.70;;;;;;;;;;5034464;28;20036;-73
2024/02/18 11:21:36;;;;;;;20.15;9.00;;;;;;;;;;5021456;28;20049;-73
2024/02/18 11:24:23;;;;;;;17.27;8.45;;;;;;;;;;5018818;28;20042;-74
2024/02/18 11:27:09;;;;;;;21.92;10.30;;;;;;;;;;5019000;28;20104;-74
2024/02/18 11:29:55;;;;;;;17.52;8.90;;;;;;;;;;5028527;28;20040;-75
2024/02/18 11:32:41;;;;;;;16.65;9.40;;;;;;;;;;5052520;28;20526;-74
2024/02/18 11:35:26;;;;;;;21.33;9.50;;;;;;;;;;5053715;28;20028;-73
2024/02/18 11:38:13;;;;;;;19.27;8.90;;;;;;;;;;5038411;28;20025;-73
2024/02/18 11:40:59;;;;;;;17.17;8.63;;;;;;;;;;5018691;28;20032;-74
2024/02/18 11:43:52;;;;;;;17.13;8.77;;;;;;;;;;5036463;28;20029;-74
2024/02/18 11:46:39;;;;;;;17.45;9.45;;;;;;;;;;5017883;28;20029;-73
2024/02/18 11:49:26;;;;;;;19.50;7.90;;;;;;;;;;5024936;28;20026;-73
2024/02/18 11:52:11;;;;;;;19.48;9.73;;;;;;;;;;5020183;28;20033;-74
2024/02/18 11:54:57;;;;;;;16.92;8.05;;;;;;;;;;5037830;28;20043;-74
2024/02/18 11:57:43;;;;;;;17.17;8.85;;;;;;;;;;5052202;28;20032;-74
2024/02/18 12:00:29;;;;;;;15.15;7.07;;;;;;;;;;5034776;28;20376;-73
2024/02/18 12:03:16;;;;;;;18.33;9.85;;;;;;;;;;5031605;28;20030;-73
2024/02/18 12:06:03;;;;;;;17.58;9.05;;;;;;;;;;5024463;28;20110;-73
2024/02/18 12:08:49;;;;;;;13.90;8.18;;;;;;;;;;5019097;28;20040;-74
2024/02/18 12:11:42;;;;;;;13.02;6.95;;;;;;;;;;5021108;28;20021;-73
2024/02/18 12:14:28;;;;;;;16.95;8.65;;;;;;;;;;5036713;28;20087;-73
2024/02/18 12:17:14;;;;;;;15.40;8.50;;;;;;;;;;5037311;28;20037;-73
2024/02/18 12:20:00;;;;;;;19.27;8.38;;;;;;;;;;5045346;28;20032;-73
2024/02/18 12:22:47;;;;;;;18.48;8.48;;;;;;;;;;5050466;28;20074;-72
2024/02/18 12:25:36;;;;;;;20.85;8.30;;;;;;;;;;5044028;28;20199;-73
2024/02/18 12:28:22;;;;;;;20.38;8.98;;;;;;;;;;5036728;28;20498;-73
2024/02/18 12:31:08;;;;;;;16.25;8.93;;;;;;;;;;5055569;28;20059;-73
2024/02/18 12:33:54;;;;;;;17.98;9.30;;;;;;;;;;5071878;28;20142;-73
2024/02/18 12:36:40;;;;;;;16.55;9.45;;;;;;;;;;5065786;28;20094;-73
2024/02/18 12:39:29;;;;;;;18.92;8.63;;;;;;;;;;5032762;28;20029;-73
2024/02/18 12:42:14;;;;;;;18.08;9.32;;;;;;;;;;5043468;28;20453;-73
2024/02/18 12:45:00;;;;;;;15.93;8.60;;;;;;;;;;5050352;28;20059;-73
2024/02/18 12:47:46;;;;;;;14.27;8.80;;;;;;;;;;5036604;28;20091;-73
2024/02/18 12:50:31;;;;;;;19.85;9.63;;;;;;;;;;5023245;28;20037;-73
2024/02/18 12:53:18;;;;;;;16.70;9.10;;;;;;;;;;5031234;28;20509;-73
2024/02/18 12:56:06;;;;;;;16.70;9.80;;;;;;;;;;5040974;28;20036;-74
2024/02/18 12:58:52;;;;;;;20.30;9.55;;;;;;;;;;5017916;28;20033;-73
2024/02/18 13:01:37;;;;;;;24.08;9.90;;;;;;;;;;5037827;28;20612;-73
2024/02/18 13:04:23;;;;;;;18.77;9.85;;;;;;;;;;5050764;28;20075;-73
2024/02/18 13:07:17;;;;;;;22.02;10.07;;;;;;;;;;5030423;28;20025;-73
2024/02/18 13:10:03;;;;;;;17.77;9.48;;;;;;;;;;5017855;28;20124;-73
2024/02/18 13:12:52;;;;;;;22.15;10.27;;;;;;;;;;5019735;28;20437;-73
2024/02/18 13:15:37;;;;;;;15.38;8.90;;;;;;;;;;5032302;28;20429;-73
2024/02/18 13:18:23;;;;;;;15.65;8.48;;;;;;;;;;5030762;28;20093;-73
2024/02/18 13:21:09;;;;;;;16.20;8.77;;;;;;;;;;5021404;28;20065;-73
2024/02/18 13:23:57;;;;;;;17.35;9.57;;;;;;;;;;5031132;28;20032;-73
2024/02/18 13:26:43;;;;;;;17.35;8.85;;;;;;;;;;5029670;28;20017;-73
2024/02/18 13:29:28;;;;;;;18.15;9.57;;;;;;;;;;5031633;28;20558;-73
2024/02/18 13:32:14;;;;;;;14.13;8.27;;;;;;;;;;5045335;28;20059;-73
2024/02/18 13:35:00;;;;;;;20.13;9.45;;;;;;;;;;5070813;28;20016;-73
2024/02/18 13:37:45;;;;;;;13.63;8.38;;;;;;;;;;5052134;28;20036;-73
2024/02/18 13:40:31;;;;;;;18.30;9.25;;;;;;;;;;5031290;28;20411;-73
2024/02/18 13:43:17;;;;;;;16.52;8.43;;;;;;;;;;5030253;28;20021;-73
2024/02/18 13:46:03;;;;;;;16.70;8.82;;;;;;;;;;5031599;28;20029;-73
2024/02/18 13:48:49;;;;;;;17.52;8.77;;;;;;;;;;5039734;28;20017;-74
2024/02/18 13:51:37;;;;;;;16.10;7.72;;;;;;;;;;5048821;28;20019;-73
2024/02/18 13:54:24;;;;;;;16.88;9.13;;;;;;;;;;5070815;28;20402;-73
2024/02/18 13:57:10;;;;;;;22.35;10.02;;;;;;;;;;5040630;28;20423;-73
2024/02/18 13:59:56;;;;;;;13.60;8.60;;;;;;;;;;5006388;28;20036;-73
2024/02/18 14:02:42;;;;;;;18.65;9.50;;;;;;;;;;5034997;28;20025;-73
2024/02/18 14:05:27;;;;;;;21.08;10.38;;;;;;;;;;5040831;28;20044;-73
2024/02/18 14:08:13;;;;;;;18.23;10.00;;;;;;;;;;5035152;28;20025;-73
2024/02/18 14:10:58;;;;;;;16.73;9.55;;;;;;;;;;5040082;28;20112;-74
2024/02/18 14:13:44;;;;;;;16.13;8.95;;;;;;;;;;5050590;28;20390;-73
2024/02/18 14:16:35;;;;;;;16.88;8.55;;;;;;;;;;5047296;28;20025;-73
2024/02/18 14:19:20;;;;;;;16.98;9.40;;;;;;;;;;5040398;28;20079;-73
2024/02/18 14:22:06;;;;;;;21.13;10.18;;;;;;;;;;5044412;28;20392;-73
2024/02/18 14:24:54;;;;;;;15.07;8.73;;;;;;;;;;5046378;28;20028;-73
2024/02/18 14:27:41;;;;;;;17.10;9.35;;;;;;;;;;5055776;28;20024;-73
2024/02/18 14:30:27;;;;;;;18.70;9.68;;;;;;;;;;5040422;28;20056;-73
2024/02/18 14:33:12;;;;;;;17.48;9.25;;;;;;;;;;5054715;28;20461;-73
2024/02/18 14:35:58;;;;;;;17.83;9.25;;;;;;;;;;5047939;28;20410;-73
2024/02/18 14:38:43;;;;;;;21.77;9.50;;;;;;;;;;5033203;28;20025;-73
2024/02/18 14:41:29;;;;;;;19.27;9.93;;;;;;;;;;5036418;28;20033;-73
2024/02/18 14:44:15;;;;;;;19.02;9.90;;;;;;;;;;5050569;28;20031;-73
2024/02/18 14:47:01;;;;;;;20.80;10.07;;;;;;;;;;5050557;28;20089;-73
2024/02/18 14:49:47;;;;;;;20.05;10.38;;;;;;;;;;5030655;28;20025;-74
2024/02/18 14:52:32;;;;;;;21.60;10.25;;;;;;;;;;5037283;28;20040;-73
2024/02/18 14:55:18;;;;;;;19.38;9.65;;;;;;;;;;5051736;28;20485;-74
2024/02/18 14:58:03;;;;;;;19.08;8.77;;;;;;;;;;5048481;28;20033;-76
2024/02/18 15:00:54;;;;;;;;;;;;;;;;;;5053593;28;20104;-76
2024/02/18 15:03:39;;;;;;;18.25;9.77;;;;;;;;;;5048458;28;19917;-73
2024/02/18 15:06:25;;;;;;;20.67;10.52;;;;;;;;;;5021694;28;20059;-73
2024/02/18 15:09:11;;;;;;;20.13;9.52;;;;;;;;;;5053771;28;20017;-73
2024/02/18 15:11:56;;;;;;;19.73;10.82;;;;;;;;;;5037048;28;20029;-73
2024/02/18 15:14:42;;;;;;;25.02;10.73;;;;;;;;;;5034296;28;20017;-73
2024/02/18 15:17:27;;;;;;;20.67;10.70;;;;;;;;;;5034489;28;20045;-73
2024/02/18 15:20:13;;;;;;;20.35;10.45;;;;;;;;;;5036621;28;20054;-73
2024/02/18 15:22:59;;;;;;;19.20;10.60;;;;;;;;;;5050103;28;20509;-74
2024/02/18 15:25:45;;;;;;;22.95;11.38;;;;;;;;;;5051590;28;20461;-73
2024/02/18 15:28:31;;;;;;;23.40;10.68;;;;;;;;;;5032596;28;20021;-72
2024/02/18 15:31:18;;;;;;;19.58;10.90;;;;;;;;;;5053206;28;20510;-73
2024/02/18 15:34:04;;;;;;;20.50;10.55;;;;;;;;;;5036783;28;20482;-74
2024/02/18 15:36:49;;;;;;;20.15;9.98;;;;;;;;;;5046868;28;20024;-75
2024/02/18 15:39:35;;;;;;;20.83;10.38;;;;;;;;;;5072134;28;20032;-74
2024/02/18 15:42:21;;;;;;;23.02;11.35;;;;;;;;;;5058296;28;20075;-74
2024/02/18 15:45:07;;;;;;;18.88;11.23;;;;;;;;;;5032404;28;20025;-74
2024/02/18 15:47:54;;;;;;;22.33;11.68;;;;;;;;;;5032969;28;20033;-74
2024/02/18 15:50:39;;;;;;;21.17;10.93;;;;;;;;;;5033104;28;20128;-74
2024/02/18 15:53:26;;;;;;;19.73;10.18;;;;;;;;;;5039149;28;20026;-74
2024/02/18 15:56:19;;;;;;;19.80;10.77;;;;;;;;;;5018882;28;20065;-74
2024/02/18 15:59:04;;;;;;;19.05;11.25;;;;;;;;;;5040379;28;20552;-74
2024/02/18 16:01:52;;;;;;;19.70;10.55;;;;;;;;;;5057190;28;20401;-74
2024/02/18 16:04:41;;;;;;;22.13;10.93;;;;;;;;;;5057013;28;20028;-73
2024/02/18 16:07:27;;;;;;;19.33;10.05;;;;;;;;;;5038771;28;20021;-73
2024/02/18 16:10:14;;;;;;;24.33;11.27;;;;;;;;;;5052454;28;20103;-73
2024/02/18 16:13:01;;;;;;;21.63;10.38;;;;;;;;;;5052631;28;20397;-73
2024/02/18 16:15:48;;;;;;;18.00;10.38;;;;;;;;;;5052494;28;20029;-73
2024/02/18 16:18:35;;;;;;;19.92;10.75;;;;;;;;;;5052051;28;20018;-74